createdAt,value
2016-10-15T00:01:07.249Z,0
2016-10-15T00:02:17.832Z,0
2016-10-15T00:03:28.575Z,0
2016-10-15T00:04:39.144Z,0
2016-10-15T00:06:08.934Z,0
2016-10-15T00:07:19.516Z,0
2016-10-15T00:08:30.299Z,0
2016-10-15T00:09:41.270Z,0
2016-10-15T00:10:51.845Z,0
2016-10-15T00:12:02.438Z,0
2016-10-15T00:13:13.405Z,0
2016-10-15T00:14:24.146Z,0
2016-10-15T00:15:34.717Z,0
2016-10-15T00:16:45.775Z,0
2016-10-15T00:17:56.354Z,0
2016-10-15T00:19:07.421Z,0
2016-10-15T00:20:18.093Z,0
2016-10-15T00:21:28.669Z,0
2016-10-15T00:22:39.241Z,0
2016-10-15T00:23:49.809Z,0
2016-10-15T00:25:00.376Z,0
2016-10-15T00:26:12.465Z,0
2016-10-15T00:27:23.044Z,0
2016-10-15T00:28:34.011Z,0
2016-10-15T00:29:44.584Z,0
2016-10-15T00:30:55.170Z,0
2016-10-15T00:32:06.341Z,0
2016-10-15T00:33:16.915Z,0
2016-10-15T00:34:27.492Z,0
2016-10-15T00:35:38.062Z,0
2016-10-15T00:36:48.636Z,0
2016-10-15T00:37:59.316Z,0
2016-10-15T00:39:09.892Z,0
2016-10-15T00:40:20.468Z,0
2016-10-15T00:41:31.045Z,0
2016-10-15T00:42:41.620Z,0
2016-10-15T00:43:52.297Z,0
2016-10-15T00:45:02.856Z,0
2016-10-15T00:46:13.859Z,0
2016-10-15T00:47:24.436Z,0
2016-10-15T00:48:35.004Z,0
2016-10-15T00:49:45.677Z,0
2016-10-15T00:50:56.644Z,0
2016-10-15T00:52:07.222Z,0
2016-10-15T00:53:17.796Z,0
2016-10-15T00:54:28.383Z,0
2016-10-15T00:55:39.361Z,0
2016-10-15T00:56:49.934Z,0
2016-10-15T00:58:00.511Z,0
2016-10-15T00:59:11.089Z,0
2016-10-15T01:00:21.662Z,0
2016-10-15T01:01:32.349Z,0
2016-10-15T01:02:42.928Z,0
2016-10-15T01:03:53.512Z,0
2016-10-15T01:05:04.150Z,0
2016-10-15T01:06:14.717Z,0
2016-10-15T01:07:25.396Z,0
2016-10-15T01:08:36.483Z,0
2016-10-15T01:09:47.052Z,0
2016-10-15T01:10:57.627Z,0
2016-10-15T01:12:08.198Z,0
2016-10-15T01:13:18.883Z,0
2016-10-15T01:14:29.471Z,0
2016-10-15T01:15:40.049Z,0
2016-10-15T01:16:50.629Z,0
2016-10-15T01:18:01.208Z,0
2016-10-15T01:19:11.782Z,0
2016-10-15T01:20:22.358Z,0
2016-10-15T01:21:32.926Z,0
2016-10-15T01:22:44.011Z,0
2016-10-15T01:23:54.596Z,0
2016-10-15T01:25:05.759Z,0
2016-10-15T01:26:16.333Z,0
2016-10-15T01:27:27.302Z,0
2016-10-15T01:28:37.881Z,0
2016-10-15T01:29:48.468Z,0
2016-10-15T01:30:59.154Z,0
2016-10-15T01:32:09.718Z,0
2016-10-15T01:33:20.298Z,0
2016-10-15T01:34:30.883Z,0
2016-10-15T01:35:41.459Z,0
2016-10-15T01:36:52.135Z,0
2016-10-15T01:38:02.711Z,0
2016-10-15T01:39:13.305Z,0
2016-10-15T01:40:23.881Z,0
2016-10-15T01:41:34.459Z,0
2016-10-15T01:42:45.040Z,0
2016-10-15T01:43:55.622Z,0
2016-10-15T01:45:06.215Z,0
2016-10-15T01:46:16.802Z,0
2016-10-15T01:47:27.378Z,0
2016-10-15T01:48:38.055Z,0
2016-10-15T01:49:48.632Z,0
2016-10-15T01:50:59.215Z,0
2016-10-15T01:52:09.793Z,0
2016-10-15T01:53:20.375Z,0
2016-10-15T01:54:31.450Z,0
2016-10-15T01:55:42.027Z,0
2016-10-15T01:56:52.602Z,0
2016-10-15T01:58:03.186Z,0
2016-10-15T01:59:13.769Z,0
2016-10-15T02:00:24.452Z,0
2016-10-15T02:01:35.031Z,0
2016-10-15T02:02:46.116Z,0
2016-10-15T02:03:56.691Z,0
2016-10-15T02:05:07.264Z,0
2016-10-15T02:06:17.935Z,0
2016-10-15T02:07:28.509Z,0
2016-10-15T02:08:39.082Z,0
2016-10-15T02:09:59.928Z,0
2016-10-15T02:11:10.668Z,0
2016-10-15T02:12:22.259Z,0
2016-10-15T02:13:33.222Z,0
2016-10-15T02:14:44.186Z,0
2016-10-15T02:15:54.770Z,0
2016-10-15T02:17:05.348Z,0
2016-10-15T02:18:15.921Z,0
2016-10-15T02:19:26.498Z,0
2016-10-15T02:20:37.082Z,0
2016-10-15T02:21:47.660Z,0
2016-10-15T02:22:58.341Z,0
2016-10-15T02:24:08.921Z,0
2016-10-15T02:25:19.501Z,0
2016-10-15T02:26:30.084Z,0
2016-10-15T02:27:40.659Z,0
2016-10-15T02:28:51.350Z,0
2016-10-15T02:30:01.922Z,0
2016-10-15T02:31:12.500Z,0
2016-10-15T02:32:23.081Z,0
2016-10-15T02:33:33.665Z,0
2016-10-15T02:34:44.338Z,0
2016-10-15T02:35:54.913Z,0
2016-10-15T02:37:05.491Z,0
2016-10-15T02:38:16.075Z,0
2016-10-15T02:39:26.646Z,0
2016-10-15T02:40:37.221Z,0
2016-10-15T02:41:47.795Z,0
2016-10-15T02:42:58.374Z,0
2016-10-15T02:44:09.441Z,0
2016-10-15T02:45:20.013Z,0
2016-10-15T02:46:30.690Z,0
2016-10-15T02:47:41.269Z,0
2016-10-15T02:48:51.855Z,0
2016-10-15T02:50:02.811Z,0
2016-10-15T02:51:13.387Z,0
2016-10-15T02:52:24.064Z,0
2016-10-15T02:53:34.639Z,0
2016-10-15T02:54:45.227Z,0
2016-10-15T02:55:55.799Z,0
2016-10-15T02:57:06.371Z,0
2016-10-15T02:58:17.025Z,0
2016-10-15T02:59:27.602Z,0
2016-10-15T03:00:38.184Z,0
2016-10-15T03:01:49.156Z,0
2016-10-15T03:02:59.729Z,0
2016-10-15T03:04:10.352Z,0
2016-10-15T03:05:20.931Z,0
2016-10-15T03:06:31.540Z,0
2016-10-15T03:07:42.114Z,0
2016-10-15T03:08:52.686Z,0
2016-10-15T03:10:03.359Z,0
2016-10-15T03:11:14.231Z,0
2016-10-15T03:12:24.807Z,0
2016-10-15T03:13:35.382Z,0
2016-10-15T03:14:45.961Z,0
2016-10-15T03:15:56.644Z,0
2016-10-15T03:17:07.230Z,0
2016-10-15T03:18:17.793Z,0
2016-10-15T03:19:28.401Z,0
2016-10-15T03:20:38.996Z,0
2016-10-15T03:21:49.671Z,0
2016-10-15T03:23:00.246Z,0
2016-10-15T03:24:10.816Z,0
2016-10-15T03:25:21.393Z,0
2016-10-15T03:26:31.960Z,0
2016-10-15T03:27:42.538Z,0
2016-10-15T03:28:53.116Z,0
2016-10-15T03:30:03.692Z,0
2016-10-15T03:31:14.259Z,0
2016-10-15T03:32:24.829Z,0
2016-10-15T03:33:35.512Z,0
2016-10-15T03:34:46.486Z,0
2016-10-15T03:35:57.068Z,0
2016-10-15T03:37:07.639Z,0
2016-10-15T03:38:18.259Z,0
2016-10-15T03:39:28.939Z,0
2016-10-15T03:40:39.506Z,0
2016-10-15T03:41:50.089Z,0
2016-10-15T03:43:00.663Z,0
2016-10-15T03:44:11.238Z,0
2016-10-15T03:45:21.907Z,0
2016-10-15T03:46:32.478Z,0
2016-10-15T03:47:43.058Z,0
2016-10-15T03:48:53.639Z,0
2016-10-15T03:50:04.221Z,0
2016-10-15T03:51:14.806Z,0
2016-10-15T03:52:25.376Z,0
2016-10-15T03:53:35.959Z,0
2016-10-15T03:54:46.536Z,0
2016-10-15T03:55:57.111Z,0
2016-10-15T03:57:07.785Z,0
2016-10-15T03:58:18.364Z,0
2016-10-15T03:59:28.940Z,0
2016-10-15T04:00:39.459Z,0
2016-10-15T04:01:50.001Z,0
2016-10-15T04:03:00.683Z,0
2016-10-15T04:04:11.650Z,0
2016-10-15T04:05:22.206Z,0
2016-10-15T04:06:33.165Z,0
2016-10-15T04:07:43.700Z,0
2016-10-15T04:08:54.380Z,0
2016-10-15T04:10:05.306Z,0
2016-10-15T04:11:15.862Z,0
2016-10-15T04:12:26.401Z,0
2016-10-15T04:13:37.277Z,0
2016-10-15T04:14:47.822Z,0
2016-10-15T04:15:58.380Z,0
2016-10-15T04:17:08.910Z,0
2016-10-15T04:18:19.500Z,0
2016-10-15T04:19:30.017Z,0
2016-10-15T04:20:40.627Z,0
2016-10-15T04:21:51.203Z,0
2016-10-15T04:23:01.759Z,0
2016-10-15T04:24:12.345Z,0
2016-10-15T04:25:22.824Z,0
2016-10-15T04:26:33.988Z,0
2016-10-15T04:27:44.532Z,0
2016-10-15T04:28:55.071Z,0
2016-10-15T04:30:05.626Z,0
2016-10-15T04:31:16.217Z,0
2016-10-15T04:32:27.104Z,0
2016-10-15T04:33:37.617Z,0
2016-10-15T04:34:48.162Z,0
2016-10-15T04:35:58.633Z,0
2016-10-15T04:37:09.133Z,0
2016-10-15T04:38:19.787Z,0
2016-10-15T04:39:30.337Z,0
2016-10-15T04:40:40.880Z,0
2016-10-15T04:41:51.424Z,0
2016-10-15T04:43:02.347Z,0
2016-10-15T04:44:13.089Z,0
2016-10-15T04:45:23.605Z,0
2016-10-15T04:46:34.176Z,0
2016-10-15T04:47:44.647Z,0
2016-10-15T04:48:55.194Z,0
2016-10-15T04:50:06.313Z,0
2016-10-15T04:51:16.838Z,0
2016-10-15T04:52:27.363Z,0
2016-10-15T04:53:37.886Z,0
2016-10-15T04:54:48.465Z,0
2016-10-15T04:55:59.086Z,0
2016-10-15T04:57:09.635Z,0
2016-10-15T04:58:20.149Z,0
2016-10-15T04:59:30.671Z,0
2016-10-15T05:00:41.175Z,0
2016-10-15T05:01:51.782Z,0
2016-10-15T05:03:02.824Z,0
2016-10-15T05:04:13.377Z,0
2016-10-15T05:05:23.933Z,0
2016-10-15T05:06:34.418Z,0
2016-10-15T05:07:44.965Z,0
2016-10-15T05:08:55.514Z,0
2016-10-15T05:10:06.043Z,0
2016-10-15T05:11:16.615Z,0
2016-10-15T05:12:27.157Z,0
2016-10-15T05:13:37.830Z,0
2016-10-15T05:14:48.363Z,0
2016-10-15T05:15:58.899Z,0
2016-10-15T05:17:09.391Z,0
2016-10-15T05:18:20.421Z,0
2016-10-15T05:19:31.071Z,0
2016-10-15T05:20:41.621Z,0
2016-10-15T05:21:52.189Z,0
2016-10-15T05:23:02.723Z,0
2016-10-15T05:24:13.254Z,0
2016-10-15T05:25:23.948Z,0
2016-10-15T05:26:34.463Z,0
2016-10-15T05:27:45.023Z,0
2016-10-15T05:28:55.575Z,0
2016-10-15T05:30:06.100Z,0
2016-10-15T05:31:16.682Z,0
2016-10-15T05:32:27.233Z,0
2016-10-15T05:33:37.755Z,0
2016-10-15T05:34:48.307Z,0
2016-10-15T05:35:58.838Z,0
2016-10-15T05:37:09.547Z,0
2016-10-15T05:38:20.074Z,0
2016-10-15T05:39:30.597Z,0
2016-10-15T05:40:41.140Z,0
2016-10-15T05:41:51.692Z,0
2016-10-15T05:43:02.284Z,0
2016-10-15T05:44:12.837Z,0
2016-10-15T05:45:23.383Z,0
2016-10-15T05:46:33.960Z,0
2016-10-15T05:47:44.496Z,0
2016-10-15T05:48:55.164Z,0
2016-10-15T05:50:05.694Z,0
2016-10-15T05:51:16.259Z,0
2016-10-15T05:52:26.808Z,0
2016-10-15T05:53:37.263Z,0
2016-10-15T05:54:47.837Z,0
2016-10-15T05:55:58.396Z,0
2016-10-15T05:57:08.925Z,0
2016-10-15T05:58:19.498Z,0
2016-10-15T05:59:30.014Z,0
2016-10-15T06:00:40.673Z,0
2016-10-15T06:01:51.197Z,0
2016-10-15T06:03:01.703Z,0
2016-10-15T06:04:12.219Z,0
2016-10-15T06:05:22.724Z,0
2016-10-15T06:06:33.367Z,0
2016-10-15T06:07:43.880Z,0
2016-10-15T06:08:54.845Z,0
2016-10-15T06:10:05.397Z,0
2016-10-15T06:11:15.915Z,0
2016-10-15T06:12:26.553Z,0
2016-10-15T06:13:37.096Z,0
2016-10-15T06:14:47.670Z,0
2016-10-15T06:15:58.192Z,0
2016-10-15T06:17:08.742Z,0
2016-10-15T06:18:19.252Z,0
2016-10-15T06:19:30.188Z,0
2016-10-15T06:20:40.678Z,0
2016-10-15T06:21:51.224Z,0
2016-10-15T06:23:02.185Z,0
2016-10-15T06:24:12.817Z,0
2016-10-15T06:25:23.345Z,0
2016-10-15T06:26:33.838Z,0
2016-10-15T06:27:44.384Z,0
2016-10-15T06:28:54.897Z,0
2016-10-15T06:30:05.519Z,0
2016-10-15T06:31:16.059Z,0
2016-10-15T06:32:26.562Z,0
2016-10-15T06:33:37.070Z,0
2016-10-15T06:34:47.636Z,0
2016-10-15T06:35:58.625Z,0
2016-10-15T06:37:09.144Z,0
2016-10-15T06:38:19.679Z,0
2016-10-15T06:39:30.214Z,0
2016-10-15T06:40:40.725Z,0
2016-10-15T06:41:51.273Z,0
2016-10-15T06:43:01.824Z,0
2016-10-15T06:44:12.362Z,0
2016-10-15T06:45:22.879Z,0
2016-10-15T06:46:33.371Z,0
2016-10-15T06:47:44.132Z,0
2016-10-15T06:48:54.656Z,0
2016-10-15T06:50:05.150Z,0
2016-10-15T06:51:15.723Z,0
2016-10-15T06:52:26.249Z,0
2016-10-15T06:53:36.901Z,0
2016-10-15T06:54:47.445Z,0
2016-10-15T06:55:57.996Z,0
2016-10-15T06:57:08.561Z,0
2016-10-15T06:58:19.127Z,0
2016-10-15T06:59:30.040Z,0
2016-10-15T07:00:40.531Z,0
2016-10-15T07:01:51.075Z,0
2016-10-15T07:03:01.610Z,0
2016-10-15T07:04:12.133Z,0
2016-10-15T07:05:22.738Z,0
2016-10-15T07:06:33.301Z,0
2016-10-15T07:07:44.194Z,0
2016-10-15T07:08:54.723Z,0
2016-10-15T07:10:05.199Z,0
2016-10-15T07:11:15.819Z,0
2016-10-15T07:12:26.339Z,0
2016-10-15T07:13:36.816Z,0
2016-10-15T07:14:47.347Z,0
2016-10-15T07:15:57.869Z,0
2016-10-15T07:17:09.036Z,0
2016-10-15T07:18:19.607Z,0
2016-10-15T07:19:30.175Z,0
2016-10-15T07:20:41.251Z,0
2016-10-15T07:21:52.327Z,0
2016-10-15T07:23:02.896Z,0
2016-10-15T07:24:13.475Z,0
2016-10-15T07:25:24.058Z,0
2016-10-15T07:26:34.635Z,0
2016-10-15T07:27:45.207Z,0
2016-10-15T07:28:55.894Z,0
2016-10-15T07:30:06.480Z,0
2016-10-15T07:31:17.070Z,0
2016-10-15T07:32:27.657Z,0
2016-10-15T07:33:38.232Z,0
2016-10-15T07:34:48.906Z,0
2016-10-15T07:35:59.484Z,0
2016-10-15T07:37:10.057Z,0
2016-10-15T07:38:20.633Z,0
2016-10-15T07:39:31.593Z,0
2016-10-15T07:40:42.267Z,0
2016-10-15T07:41:53.379Z,0
2016-10-15T07:43:03.962Z,0
2016-10-15T07:44:14.564Z,0
2016-10-15T07:45:25.133Z,0
2016-10-15T07:46:35.700Z,0
2016-10-15T07:47:46.270Z,0
2016-10-15T07:48:56.847Z,0
2016-10-15T07:50:07.407Z,0
2016-10-15T07:51:17.936Z,0
2016-10-15T07:52:28.550Z,0
2016-10-15T07:53:39.059Z,0
2016-10-15T07:54:49.607Z,0
2016-10-15T07:56:00.108Z,0
2016-10-15T07:57:10.663Z,0
2016-10-15T07:58:21.298Z,0
2016-10-15T07:59:31.838Z,0
2016-10-15T08:00:42.373Z,0
2016-10-15T08:01:52.873Z,0
2016-10-15T08:03:03.440Z,0
2016-10-15T08:04:14.088Z,0
2016-10-15T08:05:24.597Z,0
2016-10-15T08:06:35.129Z,0
2016-10-15T08:07:45.722Z,0
2016-10-15T08:08:56.263Z,0
2016-10-15T08:10:06.779Z,0
2016-10-15T08:11:17.307Z,0
2016-10-15T08:12:28.359Z,0
2016-10-15T08:13:39.295Z,0
2016-10-15T08:14:49.837Z,0
2016-10-15T08:16:00.455Z,0
2016-10-15T08:17:11.216Z,0
2016-10-15T08:18:21.827Z,0
2016-10-15T08:19:32.344Z,0
2016-10-15T08:20:43.413Z,0
2016-10-15T08:21:54.055Z,0
2016-10-15T08:23:04.515Z,0
2016-10-15T08:24:14.968Z,0
2016-10-15T08:25:25.419Z,0
2016-10-15T08:26:35.866Z,0
2016-10-15T08:27:46.433Z,0
2016-10-15T08:28:56.881Z,0
2016-10-15T08:30:07.346Z,0
2016-10-15T08:31:17.789Z,0
2016-10-15T08:32:28.248Z,0
2016-10-15T08:33:38.814Z,0
2016-10-15T08:34:49.273Z,0
2016-10-15T08:35:59.726Z,5
2016-10-15T08:37:10.176Z,5
2016-10-15T08:38:21.106Z,5
2016-10-15T08:39:31.651Z,5
2016-10-15T08:40:42.126Z,5
2016-10-15T08:41:52.621Z,10
2016-10-15T08:43:03.079Z,10
2016-10-15T08:44:13.533Z,10
2016-10-15T08:45:23.993Z,10
2016-10-15T08:46:34.447Z,15
2016-10-15T08:47:44.912Z,15
2016-10-15T08:48:55.369Z,15
2016-10-15T08:50:05.815Z,20
2016-10-15T08:51:16.769Z,20
2016-10-15T08:52:27.232Z,25
2016-10-15T08:53:37.682Z,30
2016-10-15T08:54:48.128Z,30
2016-10-15T08:55:58.585Z,35
2016-10-15T08:57:09.134Z,40
2016-10-15T08:58:19.605Z,40
2016-10-15T08:59:30.053Z,45
2016-10-15T09:00:40.501Z,50
2016-10-15T09:01:50.973Z,55
2016-10-15T09:03:01.533Z,65
2016-10-15T09:04:11.999Z,70
2016-10-15T09:05:22.843Z,75
2016-10-15T09:06:33.310Z,80
2016-10-15T09:07:43.761Z,80
2016-10-15T09:08:54.218Z,80
2016-10-15T09:10:04.662Z,80
2016-10-15T09:11:15.117Z,80
2016-10-15T09:12:25.579Z,95
2016-10-15T09:13:36.032Z,100
2016-10-15T09:14:46.598Z,100
2016-10-15T09:15:57.439Z,100
2016-10-15T09:17:07.882Z,110
2016-10-15T09:18:18.330Z,105
2016-10-15T09:19:28.783Z,115
2016-10-15T09:20:39.338Z,110
2016-10-15T09:21:49.798Z,120
2016-10-15T09:23:00.259Z,125
2016-10-15T09:24:10.724Z,135
2016-10-15T09:25:21.558Z,140
2016-10-15T09:26:32.115Z,140
2016-10-15T09:27:42.571Z,130
2016-10-15T09:28:53.023Z,135
2016-10-15T09:30:03.952Z,140
2016-10-15T09:31:14.396Z,145
2016-10-15T09:32:24.859Z,145
2016-10-15T09:33:35.328Z,145
2016-10-15T09:34:45.791Z,150
2016-10-15T09:35:56.241Z,165
2016-10-15T09:37:06.699Z,185
2016-10-15T09:38:17.631Z,230
2016-10-15T09:39:28.096Z,215
2016-10-15T09:40:38.568Z,240
2016-10-15T09:41:49.029Z,280
2016-10-15T09:42:59.537Z,295
2016-10-15T09:44:10.095Z,300
2016-10-15T09:45:20.555Z,335
2016-10-15T09:46:31.024Z,360
2016-10-15T09:47:41.477Z,525
2016-10-15T09:48:52.323Z,355
2016-10-15T09:50:02.875Z,370
2016-10-15T09:51:13.723Z,655
2016-10-15T09:52:24.182Z,450
2016-10-15T09:53:35.016Z,395
2016-10-15T09:54:45.480Z,430
2016-10-15T09:55:55.933Z,435
2016-10-15T09:57:06.385Z,470
2016-10-15T09:58:16.850Z,420
2016-10-15T09:59:27.321Z,480
2016-10-15T10:00:37.781Z,510
2016-10-15T10:01:48.851Z,480
2016-10-15T10:02:59.345Z,485
2016-10-15T10:04:09.800Z,540
2016-10-15T10:05:20.250Z,670
2016-10-15T10:06:30.698Z,660
2016-10-15T10:07:41.339Z,525
2016-10-15T10:08:51.846Z,565
2016-10-15T10:10:02.350Z,725
2016-10-15T10:11:12.825Z,850
2016-10-15T10:12:23.314Z,785
2016-10-15T10:13:33.824Z,815
2016-10-15T10:14:44.357Z,815
2016-10-15T10:15:54.858Z,735
2016-10-15T10:17:05.373Z,790
2016-10-15T10:18:15.886Z,720
2016-10-15T10:19:26.463Z,585
2016-10-15T10:20:36.940Z,530
2016-10-15T10:21:47.470Z,560
2016-10-15T10:22:57.984Z,570
2016-10-15T10:24:08.481Z,545
2016-10-15T10:25:19.078Z,510
2016-10-15T10:26:29.580Z,455
2016-10-15T10:27:40.053Z,410
2016-10-15T10:28:50.503Z,395
2016-10-15T10:30:01.032Z,390
2016-10-15T10:31:11.622Z,410
2016-10-15T10:32:22.118Z,455
2016-10-15T10:33:32.629Z,460
2016-10-15T10:34:43.166Z,465
2016-10-15T10:35:53.724Z,520
2016-10-15T10:37:04.345Z,625
2016-10-15T10:38:14.890Z,605
2016-10-15T10:39:25.414Z,610
2016-10-15T10:40:35.949Z,640
2016-10-15T10:41:46.972Z,655
2016-10-15T10:42:58.140Z,650
2016-10-15T10:44:08.684Z,610
2016-10-15T10:45:19.247Z,595
2016-10-15T10:46:29.760Z,580
2016-10-15T10:47:40.792Z,575
2016-10-15T10:48:51.817Z,565
2016-10-15T10:50:02.857Z,545
2016-10-15T10:51:14.538Z,525
2016-10-15T10:52:25.451Z,515
2016-10-15T10:53:35.978Z,535
2016-10-15T10:54:46.925Z,540
2016-10-15T10:55:57.461Z,535
2016-10-15T10:57:08.033Z,595
2016-10-15T10:58:18.556Z,595
2016-10-15T10:59:29.143Z,570
2016-10-15T11:00:39.793Z,545
2016-10-15T11:01:50.327Z,560
2016-10-15T11:03:00.892Z,680
2016-10-15T11:04:11.482Z,815
2016-10-15T11:05:22.033Z,900
2016-10-15T11:06:32.686Z,1020
2016-10-15T11:07:43.175Z,875
2016-10-15T11:08:53.703Z,1040
2016-10-15T11:10:04.164Z,840
2016-10-15T11:11:14.620Z,755
2016-10-15T11:12:25.224Z,1015
2016-10-15T11:13:35.752Z,1050
2016-10-15T11:14:46.375Z,1135
2016-10-15T11:15:56.889Z,1030
2016-10-15T11:17:07.382Z,1050
2016-10-15T11:18:17.967Z,1115
2016-10-15T11:19:28.471Z,905
2016-10-15T11:20:38.963Z,1185
2016-10-15T11:21:50.077Z,1130
2016-10-15T11:23:00.542Z,1100
2016-10-15T11:24:11.176Z,1155
2016-10-15T11:25:21.714Z,1270
2016-10-15T11:26:32.247Z,1350
2016-10-15T11:27:42.817Z,1160
2016-10-15T11:28:53.357Z,1070
2016-10-15T11:30:03.953Z,1005
2016-10-15T11:31:14.408Z,1275
2016-10-15T11:32:24.913Z,1180
2016-10-15T11:33:35.402Z,1120
2016-10-15T11:34:45.951Z,910
2016-10-15T11:35:56.465Z,1095
2016-10-15T11:37:07.789Z,1305
2016-10-15T11:38:18.303Z,1320
2016-10-15T11:39:28.796Z,1395
2016-10-15T11:40:39.339Z,1280
2016-10-15T11:41:49.970Z,1345
2016-10-15T11:43:00.457Z,1445
2016-10-15T11:44:10.976Z,1290
2016-10-15T11:45:21.477Z,1150
2016-10-15T11:46:31.983Z,1100
2016-10-15T11:47:42.558Z,1180
2016-10-15T11:48:53.083Z,1600
2016-10-15T11:50:03.592Z,1510
2016-10-15T11:51:14.080Z,1355
2016-10-15T11:52:24.549Z,1305
2016-10-15T11:53:35.138Z,1255
2016-10-15T11:54:45.643Z,1325
2016-10-15T11:55:56.156Z,1260
2016-10-15T11:57:06.630Z,1055
2016-10-15T11:58:17.110Z,1360
2016-10-15T11:59:27.807Z,1370
2016-10-15T12:00:38.707Z,1030
2016-10-15T12:01:49.240Z,1260
2016-10-15T12:02:59.735Z,1065
2016-10-15T12:04:10.223Z,1435
2016-10-15T12:05:21.229Z,1595
2016-10-15T12:06:31.727Z,1695
2016-10-15T12:07:42.262Z,1860
2016-10-15T12:08:52.795Z,1820
2016-10-15T12:10:03.336Z,1835
2016-10-15T12:11:13.939Z,1670
2016-10-15T12:12:24.417Z,1700
2016-10-15T12:13:34.916Z,1660
2016-10-15T12:14:45.438Z,1645
2016-10-15T12:15:55.947Z,1650
2016-10-15T12:17:06.536Z,1780
2016-10-15T12:18:17.006Z,1755
2016-10-15T12:19:27.475Z,1730
2016-10-15T12:20:38.032Z,1730
2016-10-15T12:21:48.561Z,1660
2016-10-15T12:22:59.159Z,1850
2016-10-15T12:24:09.672Z,1795
2016-10-15T12:25:20.205Z,1845
2016-10-15T12:26:30.709Z,1740
2016-10-15T12:27:41.223Z,1715
2016-10-15T12:28:51.742Z,1575
2016-10-15T12:30:02.304Z,1715
2016-10-15T12:31:12.797Z,1610
2016-10-15T12:32:23.337Z,1530
2016-10-15T12:33:33.854Z,1340
2016-10-15T12:34:44.482Z,1285
2016-10-15T12:35:54.991Z,1395
2016-10-15T12:37:05.886Z,1225
2016-10-15T12:38:16.366Z,1010
2016-10-15T12:39:26.874Z,1125
2016-10-15T12:40:37.486Z,1540
2016-10-15T12:41:47.955Z,1550
2016-10-15T12:42:58.445Z,1580
2016-10-15T12:44:09.315Z,1160
2016-10-15T12:45:19.826Z,1765
2016-10-15T12:46:30.458Z,1710
2016-10-15T12:47:40.930Z,1960
2016-10-15T12:48:51.438Z,1850
2016-10-15T12:50:01.942Z,1920
2016-10-15T12:51:12.461Z,1770
2016-10-15T12:52:23.026Z,1075
2016-10-15T12:53:33.487Z,1375
2016-10-15T12:54:43.973Z,1940
2016-10-15T12:55:54.496Z,2005
2016-10-15T12:57:04.997Z,2245
2016-10-15T12:58:15.638Z,2265
2016-10-15T12:59:26.645Z,1675
2016-10-15T13:00:37.587Z,2245
2016-10-15T13:01:48.546Z,2110
2016-10-15T13:02:59.100Z,2240
2016-10-15T13:04:09.726Z,2190
2016-10-15T13:05:20.283Z,2250
2016-10-15T13:06:30.778Z,2035
2016-10-15T13:07:41.311Z,1395
2016-10-15T13:08:51.814Z,1665
2016-10-15T13:10:02.328Z,1830
2016-10-15T13:11:12.808Z,2240
2016-10-15T13:12:23.284Z,2230
2016-10-15T13:13:33.784Z,2255
2016-10-15T13:14:44.657Z,2380
2016-10-15T13:15:55.789Z,2015
2016-10-15T13:17:06.378Z,2110
2016-10-15T13:18:17.391Z,2275
2016-10-15T13:19:27.902Z,2145
2016-10-15T13:20:38.499Z,1995
2016-10-15T13:21:49.176Z,1930
2016-10-15T13:22:59.719Z,1550
2016-10-15T13:24:10.225Z,1755
2016-10-15T13:25:20.804Z,1775
2016-10-15T13:26:31.327Z,2260
2016-10-15T13:27:41.980Z,2210
2016-10-15T13:28:52.915Z,2260
2016-10-15T13:30:03.508Z,2355
2016-10-15T13:31:14.070Z,2415
2016-10-15T13:32:24.615Z,2370
2016-10-15T13:33:35.199Z,2355
2016-10-15T13:34:45.790Z,2140
2016-10-15T13:35:56.332Z,2340
2016-10-15T13:37:06.923Z,2455
2016-10-15T13:38:17.492Z,2415
2016-10-15T13:39:28.123Z,2375
2016-10-15T13:40:38.667Z,2290
2016-10-15T13:41:49.697Z,2285
2016-10-15T13:43:00.254Z,2260
2016-10-15T13:44:10.796Z,2365
2016-10-15T13:45:21.427Z,2445
2016-10-15T13:46:31.969Z,2365
2016-10-15T13:47:42.548Z,2325
2016-10-15T13:48:53.087Z,2320
2016-10-15T13:50:03.601Z,2315
2016-10-15T13:51:14.185Z,2390
2016-10-15T13:52:24.685Z,2310
2016-10-15T13:53:35.151Z,2240
2016-10-15T13:54:45.726Z,2110
2016-10-15T13:55:56.264Z,850
2016-10-15T13:57:06.747Z,1945
2016-10-15T13:58:17.285Z,2330
2016-10-15T13:59:27.801Z,2275
2016-10-15T14:00:38.315Z,2290
2016-10-15T14:01:48.788Z,2410
2016-10-15T14:02:59.812Z,2380
2016-10-15T14:04:10.289Z,2390
2016-10-15T14:05:21.305Z,2330
2016-10-15T14:06:31.839Z,2475
2016-10-15T14:07:42.346Z,2465
2016-10-15T14:08:52.930Z,2410
2016-10-15T14:10:03.408Z,2440
2016-10-15T14:11:13.881Z,2250
2016-10-15T14:12:24.385Z,2275
2016-10-15T14:13:34.899Z,2365
2016-10-15T14:14:45.891Z,2470
2016-10-15T14:15:56.361Z,2480
2016-10-15T14:17:06.859Z,2475
2016-10-15T14:18:17.388Z,2400
2016-10-15T14:19:28.383Z,2110
2016-10-15T14:20:38.951Z,1865
2016-10-15T14:21:49.508Z,1350
2016-10-15T14:23:00.444Z,1745
2016-10-15T14:24:11.469Z,1830
2016-10-15T14:25:22.043Z,2225
2016-10-15T14:26:32.810Z,2290
2016-10-15T14:27:43.318Z,1390
2016-10-15T14:28:53.880Z,2395
2016-10-15T14:30:04.456Z,2385
2016-10-15T14:31:15.023Z,2500
2016-10-15T14:32:25.714Z,2370
2016-10-15T14:33:36.628Z,2505
2016-10-15T14:34:47.193Z,2315
2016-10-15T14:35:57.785Z,2310
2016-10-15T14:37:08.759Z,2445
2016-10-15T14:38:19.381Z,2455
2016-10-15T14:39:29.973Z,2405
2016-10-15T14:40:40.467Z,2415
2016-10-15T14:41:50.982Z,2435
2016-10-15T14:43:01.523Z,2455
2016-10-15T14:44:12.136Z,1545
2016-10-15T14:45:22.671Z,935
2016-10-15T14:46:33.197Z,935
2016-10-15T14:47:43.746Z,970
2016-10-15T14:48:54.297Z,1040
2016-10-15T14:50:04.880Z,1115
2016-10-15T14:51:15.417Z,1200
2016-10-15T14:52:25.972Z,1595
2016-10-15T14:53:36.518Z,1380
2016-10-15T14:54:47.092Z,1165
2016-10-15T14:55:57.725Z,1320
2016-10-15T14:57:08.265Z,1740
2016-10-15T14:58:18.823Z,2235
2016-10-15T14:59:29.390Z,2090
2016-10-15T15:00:39.981Z,1450
2016-10-15T15:01:50.644Z,1850
2016-10-15T15:03:01.172Z,1710
2016-10-15T15:04:11.750Z,1735
2016-10-15T15:05:22.715Z,1335
2016-10-15T15:06:33.307Z,1340
2016-10-15T15:07:43.972Z,1585
2016-10-15T15:08:54.520Z,1590
2016-10-15T15:10:05.446Z,1325
2016-10-15T15:11:16.019Z,1350
2016-10-15T15:12:26.575Z,1530
2016-10-15T15:13:37.146Z,1850
2016-10-15T15:14:47.677Z,2020
2016-10-15T15:15:58.237Z,2075
2016-10-15T15:17:08.774Z,2540
2016-10-15T15:18:19.304Z,2430
2016-10-15T15:19:29.978Z,2335
2016-10-15T15:20:40.526Z,2350
2016-10-15T15:21:51.066Z,2230
2016-10-15T15:23:01.635Z,2280
2016-10-15T15:24:12.154Z,2345
2016-10-15T15:25:22.756Z,2270
2016-10-15T15:26:33.331Z,2265
2016-10-15T15:27:43.894Z,2005
2016-10-15T15:28:54.422Z,2245
2016-10-15T15:30:05.340Z,2220
2016-10-15T15:31:16.001Z,2215
2016-10-15T15:32:26.539Z,2165
2016-10-15T15:33:37.498Z,2300
2016-10-15T15:34:48.068Z,1980
2016-10-15T15:35:58.632Z,2250
2016-10-15T15:37:09.212Z,2470
2016-10-15T15:38:19.781Z,1060
2016-10-15T15:39:30.324Z,1595
2016-10-15T15:40:40.906Z,2115
2016-10-15T15:41:51.432Z,2270
2016-10-15T15:43:02.088Z,2330
2016-10-15T15:44:12.648Z,2385
2016-10-15T15:45:23.204Z,2250
2016-10-15T15:46:33.782Z,2335
2016-10-15T15:47:44.352Z,2235
2016-10-15T15:48:55.103Z,2290
2016-10-15T15:50:05.615Z,925
2016-10-15T15:51:16.530Z,1910
2016-10-15T15:52:27.431Z,2280
2016-10-15T15:53:37.998Z,2290
2016-10-15T15:54:48.580Z,2280
2016-10-15T15:55:59.118Z,2265
2016-10-15T15:57:09.659Z,2165
2016-10-15T15:58:20.241Z,1925
2016-10-15T15:59:30.768Z,1965
2016-10-15T16:00:41.563Z,2000
2016-10-15T16:01:52.161Z,2005
2016-10-15T16:03:03.068Z,1315
2016-10-15T16:04:13.628Z,2060
2016-10-15T16:05:24.205Z,2085
2016-10-15T16:06:34.884Z,2140
2016-10-15T16:07:45.419Z,1585
2016-10-15T16:08:55.989Z,2155
2016-10-15T16:10:06.534Z,1340
2016-10-15T16:11:17.104Z,2230
2016-10-15T16:12:27.748Z,2135
2016-10-15T16:13:38.312Z,1215
2016-10-15T16:14:49.347Z,2065
2016-10-15T16:15:59.910Z,2130
2016-10-15T16:17:10.504Z,2085
2016-10-15T16:18:21.046Z,2070
2016-10-15T16:19:31.590Z,1970
2016-10-15T16:20:42.126Z,2070
2016-10-15T16:21:52.683Z,700
2016-10-15T16:23:03.228Z,610
2016-10-15T16:24:14.003Z,530
2016-10-15T16:25:24.586Z,490
2016-10-15T16:26:35.172Z,490
2016-10-15T16:27:45.709Z,570
2016-10-15T16:28:56.282Z,1405
2016-10-15T16:30:06.949Z,975
2016-10-15T16:31:18.036Z,560
2016-10-15T16:32:28.553Z,2035
2016-10-15T16:33:39.091Z,2105
2016-10-15T16:34:49.619Z,2065
2016-10-15T16:36:00.248Z,2020
2016-10-15T16:37:10.770Z,2060
2016-10-15T16:38:21.349Z,835
2016-10-15T16:39:31.917Z,2055